Time;durP1;ratioP1;P1;durP2;ratioP2;P2;SDS_P1;SDS_P2;PMS_P1;PMS_P2;Temp;Humidity;BMP_temperature;BMP_pressure;BME280_temperature;BME280_humidity;BME280_pressure;Samples;Min_cycle;Max_cycle;Signal;HPM_P1;HPM_P2
2022/06/06 00:00:28;;;;;;;0.33;0.20;;;20.40;99.90;;;;;;5145166;27;20419;-62
2022/06/06 00:03:07;;;;;;;0.43;0.30;;;20.40;99.90;;;;;;5145672;27;20485;-63
2022/06/06 00:05:42;;;;;;;0.60;0.47;;;20.40;99.90;;;;;;5145649;27;20428;-60
2022/06/06 00:08:13;;;;;;;0.60;0.50;;;20.30;99.90;;;;;;5145700;27;20758;-61
2022/06/06 00:10:45;;;;;;;0.57;0.37;;;20.10;99.90;;;;;;5144336;27;20447;-61
2022/06/06 00:13:17;;;;;;;0.50;0.40;;;20.00;99.90;;;;;;5145680;27;20737;-61
2022/06/06 00:15:48;;;;;;;0.50;0.30;;;19.70;99.90;;;;;;5145211;27;20455;-61
2022/06/06 00:18:19;;;;;;;0.30;0.20;;;19.50;99.90;;;;;;5142143;27;20404;-61
2022/06/06 00:20:52;;;;;;;0.57;0.30;;;19.60;99.90;;;;;;5124603;28;20426;-61
2022/06/06 00:23:23;;;;;;;0.30;0.20;;;19.40;99.90;;;;;;5124797;28;20446;-60
2022/06/06 00:25:53;;;;;;;0.30;0.20;;;19.30;99.90;;;;;;5123631;28;20437;-61
2022/06/06 00:28:24;;;;;;;0.40;0.30;;;19.20;99.90;;;;;;5124635;28;20463;-61
2022/06/06 00:34:48;;;;;;;0.50;0.20;;;19.10;99.90;;;;;;5124412;28;20419;-61
2022/06/06 00:36:39;;;;;;;0.43;0.23;;;18.90;99.90;;;;;;5124333;28;20420;-61
2022/06/06 00:39:12;;;;;;;0.60;0.40;;;18.90;99.90;;;;;;5123633;28;20426;-61
2022/06/06 00:41:44;;;;;;;0.60;0.40;;;18.90;99.90;;;;;;5124366;28;20504;-61
2022/06/06 00:44:17;;;;;;;0.40;0.20;;;19.10;99.90;;;;;;5142063;27;20449;-60
2022/06/06 00:46:53;;;;;;;0.40;0.20;;;19.40;99.90;;;;;;5144740;27;20445;-61
2022/06/06 00:49:33;;;;;;;0.40;0.40;;;19.50;99.90;;;;;;5144383;27;20465;-61
2022/06/06 00:52:11;;;;;;;0.60;0.60;;;19.60;99.90;;;;;;5144524;27;20427;-61
2022/06/06 00:54:44;;;;;;;0.40;0.40;;;19.70;99.90;;;;;;5143510;27;20425;-61
2022/06/06 00:57:18;;;;;;;0.40;0.40;;;19.70;99.90;;;;;;5144673;27;20447;-61
2022/06/06 00:59:54;;;;;;;0.60;0.40;;;19.60;99.90;;;;;;5144359;27;20419;-61
2022/06/06 01:02:25;;;;;;;0.80;0.60;;;19.50;99.90;;;;;;5144766;27;20463;-60
2022/06/06 01:04:57;;;;;;;0.90;0.60;;;19.50;99.90;;;;;;5144461;27;20444;-60
2022/06/06 01:07:29;;;;;;;0.80;0.30;;;19.40;99.90;;;;;;5144567;27;20416;-61
2022/06/06 01:10:00;;;;;;;0.60;0.60;;;19.40;99.90;;;;;;5143561;27;20432;-61
2022/06/06 01:12:33;;;;;;;1.00;0.90;;;19.40;99.90;;;;;;5143842;27;20494;-60
2022/06/06 01:15:09;;;;;;;0.43;0.37;;;19.40;99.90;;;;;;5144253;27;20565;-60
2022/06/06 01:17:49;;;;;;;0.77;0.50;;;19.50;99.90;;;;;;5144038;27;20423;-61
2022/06/06 01:20:40;;;;;;;0.50;0.40;;;19.40;99.90;;;;;;5123640;28;20814;-61
2022/06/06 01:23:44;;;;;;;1.30;0.63;;;19.30;99.90;;;;;;5123940;28;20497;-61
2022/06/06 01:26:39;;;;;;;0.60;0.60;;;19.40;99.90;;;;;;5123432;28;20447;-61
2022/06/06 01:29:16;;;;;;;2.37;1.27;;;19.30;99.90;;;;;;5123433;28;20445;-61
2022/06/06 01:31:50;;;;;;;1.07;0.70;;;19.40;99.90;;;;;;5123773;28;20820;-61
2022/06/06 01:34:25;;;;;;;0.63;0.47;;;19.40;99.90;;;;;;5123532;28;20451;-62
2022/06/06 01:36:58;;;;;;;0.83;0.80;;;19.30;99.90;;;;;;5123939;28;20458;-61
2022/06/06 01:39:31;;;;;;;0.73;0.73;;;19.30;99.90;;;;;;5122586;28;20421;-61
2022/06/06 01:42:09;;;;;;;0.67;0.50;;;19.30;99.90;;;;;;5123823;28;20538;-61
2022/06/06 01:44:46;;;;;;;0.50;0.40;;;19.30;99.90;;;;;;5123168;28;20416;-61
2022/06/06 01:47:20;;;;;;;0.47;0.47;;;19.20;99.90;;;;;;5123336;28;20416;-61
2022/06/06 01:49:51;;;;;;;0.57;0.57;;;19.20;99.90;;;;;;5123099;28;20487;-61
2022/06/06 01:52:22;;;;;;;0.40;0.40;;;19.10;99.90;;;;;;5123711;28;20452;-61
2022/06/06 01:54:55;;;;;;;0.50;0.40;;;19.00;99.90;;;;;;5122360;28;20440;-61
2022/06/06 01:57:27;;;;;;;1.10;0.50;;;18.90;99.90;;;;;;5123023;28;20581;-61
2022/06/06 01:59:59;;;;;;;0.50;0.50;;;18.80;99.90;;;;;;5122999;28;20446;-61
2022/06/06 02:02:30;;;;;;;1.17;0.60;;;18.70;99.90;;;;;;5123160;28;20920;-61
2022/06/06 02:05:01;;;;;;;0.70;0.60;;;18.70;99.90;;;;;;5123017;28;21123;-61
2022/06/06 02:07:31;;;;;;;0.40;0.30;;;18.50;99.90;;;;;;5123523;28;20401;-61
2022/06/06 02:10:02;;;;;;;0.50;0.40;;;18.40;99.90;;;;;;5122252;28;20452;-61
2022/06/06 02:12:34;;;;;;;0.50;0.40;;;18.30;99.90;;;;;;5123412;28;20438;-61
2022/06/06 02:15:09;;;;;;;0.40;0.30;;;18.20;99.90;;;;;;5122735;28;20460;-61
2022/06/06 02:17:40;;;;;;;0.40;0.40;;;18.10;99.90;;;;;;5122715;28;20974;-61
2022/06/06 02:20:13;;;;;;;0.40;0.30;;;18.00;99.90;;;;;;5122763;28;20463;-62
2022/06/06 02:22:44;;;;;;;0.50;0.40;;;17.90;99.90;;;;;;5124399;28;20478;-61
2022/06/06 02:25:16;;;;;;;1.03;0.30;;;17.90;99.90;;;;;;5126116;28;20941;-61
2022/06/06 02:27:47;;;;;;;0.60;0.50;;;17.70;99.90;;;;;;5126879;28;20449;-61
2022/06/06 02:30:22;;;;;;;0.37;0.33;;;17.80;99.90;;;;;;5126791;28;20808;-61
2022/06/06 02:32:53;;;;;;;0.50;0.50;;;17.80;99.90;;;;;;5126681;28;20475;-61
2022/06/06 02:35:29;;;;;;;0.63;0.50;;;17.70;99.90;;;;;;5126417;28;20456;-61
2022/06/06 02:38:00;;;;;;;0.70;0.50;;;17.70;99.90;;;;;;5126852;28;20397;-61
2022/06/06 02:40:32;;;;;;;0.50;0.40;;;17.60;99.90;;;;;;5125909;28;20464;-61
2022/06/06 02:43:03;;;;;;;1.40;0.50;;;17.60;99.90;;;;;;5134308;27;20494;-61
2022/06/06 02:45:35;;;;;;;0.53;0.53;;;17.50;99.90;;;;;;5146883;27;20460;-63
2022/06/06 02:48:11;;;;;;;0.50;0.40;;;17.30;99.90;;;;;;5146765;27;20440;-61
2022/06/06 02:50:42;;;;;;;2.30;0.50;;;17.30;99.90;;;;;;5147314;27;20452;-60
2022/06/06 02:53:13;;;;;;;0.53;0.30;;;17.20;99.90;;;;;;5147405;27;20403;-60
2022/06/06 02:55:43;;;;;;;1.13;0.40;;;17.00;99.90;;;;;;5146383;27;20420;-60
2022/06/06 02:58:14;;;;;;;0.40;0.40;;;16.80;99.90;;;;;;5146661;27;20445;-60
2022/06/06 03:00:47;;;;;;;0.50;0.50;;;16.60;99.90;;;;;;5146867;27;20450;-61
2022/06/06 03:03:18;;;;;;;0.40;0.40;;;16.50;99.90;;;;;;5146784;27;20462;-60
2022/06/06 03:05:56;;;;;;;0.30;0.30;;;16.50;99.90;;;;;;5146503;27;20455;-61
2022/06/06 03:08:43;;;;;;;0.73;0.43;;;16.40;99.90;;;;;;5146682;27;20429;-60
2022/06/06 03:11:26;;;;;;;0.47;0.30;;;16.40;99.90;;;;;;5146705;27;20435;-61
2022/06/06 03:14:21;;;;;;;0.60;0.40;;;16.40;99.90;;;;;;5146525;27;20425;-61
2022/06/06 03:23:17;;;;;;;0.40;0.30;;;16.20;99.90;;;;;;5125659;28;20487;-60
2022/06/06 03:25:55;;;;;;;0.60;0.60;;;16.20;99.90;;;;;;5124736;28;20464;-60
2022/06/06 03:28:36;;;;;;;0.50;0.30;;;16.10;99.90;;;;;;5125794;28;20457;-61
2022/06/06 03:31:17;;;;;;;0.30;0.30;;;16.10;99.90;;;;;;5125506;28;20464;-61
2022/06/06 03:34:00;;;;;;;0.50;0.50;;;16.00;99.90;;;;;;5124850;28;20827;-60
2022/06/06 03:36:39;;;;;;;0.60;0.53;;;16.00;99.90;;;;;;5125851;28;20457;-60
2022/06/06 03:39:18;;;;;;;0.80;0.70;;;16.00;99.90;;;;;;5124313;28;20449;-61
2022/06/06 03:41:57;;;;;;;0.80;0.63;;;16.00;99.90;;;;;;5125873;28;20429;-60
2022/06/06 03:44:39;;;;;;;0.90;0.90;;;16.10;99.90;;;;;;5145399;27;20511;-61
2022/06/06 03:47:17;;;;;;;0.57;0.57;;;16.20;99.90;;;;;;5146150;27;20437;-60
2022/06/06 03:50:00;;;;;;;0.70;0.50;;;16.10;99.90;;;;;;5145342;27;20460;-60
2022/06/06 03:52:38;;;;;;;0.67;0.67;;;16.10;99.90;;;;;;5146055;27;20459;-61
2022/06/06 03:55:17;;;;;;;0.40;0.40;;;16.00;99.90;;;;;;5144740;27;20451;-60
2022/06/06 03:57:50;;;;;;;1.90;0.90;;;16.00;99.90;;;;;;5145949;27;20459;-60
2022/06/06 04:00:21;;;;;;;0.93;0.93;;;16.00;99.90;;;;;;5145061;27;20456;-60
2022/06/06 04:02:56;;;;;;;2.40;1.10;;;16.00;99.90;;;;;;5146044;27;20448;-60
2022/06/06 04:05:31;;;;;;;1.10;0.93;;;16.00;99.90;;;;;;5145319;27;20452;-60
2022/06/06 04:08:01;;;;;;;1.00;1.00;;;16.00;99.90;;;;;;5145737;27;20444;-60
2022/06/06 04:10:57;;;;;;;0.93;0.93;;;15.90;99.90;;;;;;5144269;27;20566;-60
2022/06/06 04:13:42;;;;;;;1.20;1.10;;;15.80;99.90;;;;;;5145357;27;20527;-60
2022/06/06 04:16:26;;;;;;;1.57;0.93;;;15.70;99.90;;;;;;5145495;27;20486;-60
2022/06/06 04:19:10;;;;;;;1.43;1.33;;;15.70;99.90;;;;;;5136353;27;20441;-61
2022/06/06 04:21:51;;;;;;;1.17;1.07;;;15.60;99.90;;;;;;5124921;28;20422;-60
2022/06/06 04:24:45;;;;;;;3.60;1.00;;;15.50;99.90;;;;;;5123855;28;20477;-60
2022/06/06 04:27:23;;;;;;;1.27;1.17;;;15.40;99.90;;;;;;5125002;28;20437;-60
2022/06/06 04:30:01;;;;;;;1.20;1.10;;;15.40;99.90;;;;;;5123999;28;20468;-60
2022/06/06 04:32:46;;;;;;;0.80;0.70;;;15.40;99.90;;;;;;5124349;28;20445;-60
2022/06/06 04:35:23;;;;;;;0.90;0.90;;;15.30;99.90;;;;;;5124227;28;20567;-60
2022/06/06 04:38:03;;;;;;;0.70;0.70;;;15.40;99.90;;;;;;5124428;28;20449;-60
2022/06/06 04:40:42;;;;;;;0.80;0.70;;;15.30;99.90;;;;;;5123066;28;20449;-61
2022/06/06 04:43:19;;;;;;;1.43;0.80;;;15.20;99.90;;;;;;5133486;27;20441;-61
2022/06/06 04:45:58;;;;;;;1.30;1.20;;;15.20;99.90;;;;;;5144450;27;20425;-63
2022/06/06 04:48:32;;;;;;;1.17;0.87;;;15.10;99.90;;;;;;5144986;27;20445;-61
2022/06/06 04:51:04;;;;;;;1.00;1.00;;;15.10;99.90;;;;;;5144394;27;20443;-62
2022/06/06 04:53:41;;;;;;;0.80;0.80;;;15.00;99.90;;;;;;5144667;27;20452;-61
2022/06/06 04:56:17;;;;;;;1.03;0.97;;;14.90;99.90;;;;;;5144039;27;20927;-62
2022/06/06 04:58:51;;;;;;;1.20;1.10;;;14.90;99.90;;;;;;5144400;27;20458;-62
2022/06/06 05:01:22;;;;;;;3.20;1.20;;;14.80;99.90;;;;;;5144422;27;20914;-61
2022/06/06 05:03:53;;;;;;;2.27;1.10;;;14.80;99.90;;;;;;5144481;27;20476;-62
2022/06/06 05:07:00;;;;;;;1.30;1.20;;;14.80;99.90;;;;;;5144423;27;20451;-62
2022/06/06 05:09:54;;;;;;;1.30;1.00;;;14.90;99.90;;;;;;5143361;27;20448;-61
2022/06/06 05:12:48;;;;;;;1.20;1.10;;;14.80;99.90;;;;;;5144343;27;20769;-62
2022/06/06 05:15:32;;;;;;;1.37;1.27;;;14.70;99.90;;;;;;5143894;27;20451;-62
2022/06/06 05:18:18;;;;;;;1.10;1.07;;;14.70;99.90;;;;;;5143232;27;20459;-61
2022/06/06 05:21:06;;;;;;;1.20;1.20;;;14.70;99.90;;;;;;5123176;28;20446;-61
2022/06/06 05:24:04;;;;;;;0.93;0.93;;;14.70;99.90;;;;;;5123288;28;20461;-61
2022/06/06 05:27:06;;;;;;;1.17;0.90;;;14.40;99.90;;;;;;5119038;28;20461;-61
2022/06/06 05:29:53;;;;;;;1.40;1.30;;;14.40;99.90;;;;;;5123127;28;20446;-61
2022/06/06 05:32:42;;;;;;;1.60;1.43;;;14.30;99.90;;;;;;5123267;28;20917;-61
2022/06/06 05:35:22;;;;;;;0.80;0.60;;;14.30;99.90;;;;;;5123164;28;20456;-61
2022/06/06 05:38:03;;;;;;;1.23;0.80;;;14.30;99.90;;;;;;5123378;28;20453;-61
2022/06/06 05:40:39;;;;;;;1.13;0.73;;;14.30;99.90;;;;;;5121878;28;20440;-62
2022/06/06 05:43:26;;;;;;;0.73;0.73;;;14.30;99.90;;;;;;5132262;27;20428;-62
2022/06/06 05:46:22;;;;;;;0.77;0.77;;;14.30;99.90;;;;;;5143656;27;20484;-61
2022/06/06 05:49:11;;;;;;;1.70;1.60;;;14.30;99.90;;;;;;5143521;27;20448;-61
2022/06/06 05:52:00;;;;;;;0.67;0.60;;;14.30;99.90;;;;;;5143318;27;20594;-61
2022/06/06 05:54:47;;;;;;;0.93;0.90;;;14.30;99.90;;;;;;5142552;27;20561;-62
2022/06/06 05:57:43;;;;;;;1.30;0.50;;;14.30;99.90;;;;;;5143006;27;20475;-62
2022/06/06 06:00:26;;;;;;;1.03;0.80;;;14.30;99.90;;;;;;5143229;27;20445;-60
2022/06/06 06:03:42;;;;;;;0.80;0.70;;;14.20;99.90;;;;;;5143458;27;20536;-61
2022/06/06 06:06:20;;;;;;;0.90;0.70;;;14.20;99.90;;;;;;5143384;27;20579;-61
2022/06/06 06:09:09;;;;;;;0.90;0.73;;;14.20;99.90;;;;;;5142729;27;20449;-61
2022/06/06 06:12:08;;;;;;;0.90;0.90;;;14.30;99.90;;;;;;5143083;27;20456;-61
2022/06/06 06:14:51;;;;;;;1.17;0.77;;;14.20;99.90;;;;;;5143143;27;20445;-62
2022/06/06 06:17:28;;;;;;;0.93;0.60;;;14.20;99.90;;;;;;5143674;27;20441;-62
2022/06/06 06:20:06;;;;;;;1.10;1.00;;;14.20;99.90;;;;;;5126141;27;20433;-61
2022/06/06 06:22:40;;;;;;;0.70;0.63;;;14.20;99.90;;;;;;5122858;28;20446;-61
2022/06/06 06:25:11;;;;;;;1.03;0.80;;;14.20;99.90;;;;;;5121604;28;20497;-60
2022/06/06 06:27:43;;;;;;;0.40;0.40;;;14.20;99.90;;;;;;5122888;28;20446;-61
2022/06/06 06:30:16;;;;;;;1.30;0.70;;;14.20;99.90;;;;;;5122456;28;20456;-61
2022/06/06 06:33:11;;;;;;;0.93;0.90;;;14.30;99.90;;;;;;5134816;28;20449;-61
2022/06/06 06:35:50;;;;;;;0.70;0.67;;;14.20;99.90;;;;;;5142921;27;20460;-61
2022/06/06 06:38:44;;;;;;;0.80;0.70;;;14.20;99.90;;;;;;5143302;27;20525;-61
2022/06/06 06:41:25;;;;;;;1.90;0.73;;;14.00;99.90;;;;;;5142780;27;20437;-61
2022/06/06 06:44:04;;;;;;;0.60;0.60;;;14.10;99.90;;;;;;5143083;27;20421;-61
2022/06/06 06:46:40;;;;;;;0.60;0.60;;;14.20;99.90;;;;;;5143260;27;20450;-61
2022/06/06 06:49:37;;;;;;;0.80;0.57;;;14.20;99.90;;;;;;5142761;27;21012;-61
2022/06/06 06:52:24;;;;;;;0.70;0.70;;;14.10;99.90;;;;;;5142905;28;20441;-61
2022/06/06 06:55:21;;;;;;;0.90;0.87;;;14.20;99.90;;;;;;5142050;27;20445;-61
2022/06/06 06:58:13;;;;;;;1.40;0.70;;;14.10;99.90;;;;;;5141499;28;20452;-61
2022/06/06 07:00:50;;;;;;;0.70;0.70;;;14.10;99.90;;;;;;5142691;27;20441;-61
2022/06/06 07:09:39;;;;;;;1.03;0.70;;;14.00;99.90;;;;;;5142338;27;20788;-61
2022/06/06 07:12:29;;;;;;;1.10;1.00;;;14.00;99.90;;;;;;5146630;27;20470;-62
2022/06/06 07:15:18;;;;;;;0.70;0.60;;;14.00;99.90;;;;;;5146364;27;20500;-61
2022/06/06 07:17:52;;;;;;;0.60;0.60;;;14.10;99.90;;;;;;5146567;27;20443;-61
2022/06/06 07:20:23;;;;;;;0.83;0.83;;;14.10;99.90;;;;;;5146635;27;20421;-61
2022/06/06 07:23:02;;;;;;;0.90;0.70;;;14.00;99.90;;;;;;5146383;27;20452;-61
2022/06/06 07:25:39;;;;;;;0.83;0.80;;;14.00;99.90;;;;;;5145300;27;20552;-61
2022/06/06 07:28:11;;;;;;;0.63;0.63;;;13.90;99.90;;;;;;5146405;27;20436;-61
2022/06/06 07:30:48;;;;;;;0.63;0.63;;;13.90;99.90;;;;;;5146247;27;20440;-61
2022/06/06 07:33:37;;;;;;;1.27;0.70;;;13.90;99.90;;;;;;5145794;27;20469;-61
2022/06/06 07:36:22;;;;;;;0.60;0.60;;;13.80;99.90;;;;;;5146117;27;20460;-62
2022/06/06 07:39:12;;;;;;;0.67;0.67;;;13.80;99.90;;;;;;5145565;27;20444;-61
2022/06/06 07:41:55;;;;;;;0.80;0.60;;;13.90;99.90;;;;;;5146462;27;20441;-61
2022/06/06 07:44:48;;;;;;;0.50;0.50;;;13.90;99.90;;;;;;5145632;27;20566;-61
2022/06/06 07:47:38;;;;;;;1.00;0.83;;;13.80;99.90;;;;;;5146003;27;20437;-61
2022/06/06 07:50:14;;;;;;;0.83;0.50;;;13.80;99.90;;;;;;5145658;27;20464;-61
2022/06/06 07:52:55;;;;;;;3.03;0.57;;;13.80;99.90;;;;;;5145717;27;20463;-61
2022/06/06 07:55:31;;;;;;;0.97;0.70;;;13.80;99.90;;;;;;5144670;27;20449;-61
2022/06/06 07:58:11;;;;;;;0.70;0.60;;;13.80;99.90;;;;;;5145741;27;20448;-61
2022/06/06 08:00:48;;;;;;;1.07;0.80;;;13.90;99.90;;;;;;5145219;27;20524;-61
2022/06/06 08:03:23;;;;;;;1.73;0.90;;;13.90;99.90;;;;;;5145855;27;20440;-61
2022/06/06 08:06:14;;;;;;;0.70;0.70;;;13.90;99.90;;;;;;5145578;27;20476;-61
2022/06/06 08:09:11;;;;;;;0.80;0.80;;;13.80;99.90;;;;;;5145479;27;20903;-61
2022/06/06 08:11:55;;;;;;;0.60;0.60;;;13.70;99.90;;;;;;5145580;27;20444;-61
2022/06/06 08:14:41;;;;;;;0.60;0.50;;;13.80;99.90;;;;;;5145043;27;20459;-61
2022/06/06 08:17:27;;;;;;;0.70;0.70;;;13.80;99.90;;;;;;5145595;27;20456;-61
2022/06/06 08:20:15;;;;;;;1.10;1.00;;;13.80;99.90;;;;;;5127581;27;20452;-61
2022/06/06 08:22:47;;;;;;;1.03;0.67;;;13.70;99.90;;;;;;5124667;28;20452;-61
2022/06/06 08:25:20;;;;;;;0.80;0.70;;;13.80;99.90;;;;;;5123519;27;20492;-61
2022/06/06 08:27:53;;;;;;;1.63;0.70;;;13.80;99.90;;;;;;5124859;28;20426;-62
2022/06/06 08:30:24;;;;;;;1.20;1.07;;;13.70;99.90;;;;;;5124886;28;20896;-61
2022/06/06 08:32:55;;;;;;;0.70;0.70;;;13.70;99.90;;;;;;5124271;28;20470;-61
2022/06/06 08:35:35;;;;;;;0.63;0.63;;;13.60;99.90;;;;;;5124265;28;20464;-61
2022/06/06 08:38:37;;;;;;;0.67;0.67;;;13.60;99.90;;;;;;5124527;28;20453;-61
2022/06/06 08:41:50;;;;;;;0.60;0.60;;;13.70;99.90;;;;;;5123508;28;20464;-61
2022/06/06 08:44:30;;;;;;;1.63;0.87;;;13.70;99.90;;;;;;5138477;27;20453;-61
2022/06/06 08:47:12;;;;;;;1.03;0.93;;;13.70;99.90;;;;;;5144909;27;20495;-61
2022/06/06 08:53:28;;;;;;;0.70;0.70;;;13.70;99.90;;;;;;5144904;27;20498;-61
2022/06/06 08:56:30;;;;;;;0.70;0.70;;;13.70;99.90;;;;;;5143622;27;20445;-61
2022/06/06 08:59:41;;;;;;;1.17;0.90;;;13.70;99.90;;;;;;5144292;27;20448;-61
2022/06/06 09:03:01;;;;;;;1.10;1.00;;;13.70;99.90;;;;;;5144811;27;20780;-61
2022/06/06 09:06:06;;;;;;;0.70;0.70;;;13.70;99.90;;;;;;5060098;28;20459;-61
2022/06/06 09:09:06;;;;;;;1.07;0.90;;;13.60;99.90;;;;;;5060636;28;20452;-61
2022/06/06 09:12:06;;;;;;;0.83;0.83;;;13.70;99.90;;;;;;5060710;28;20448;-61
2022/06/06 09:15:14;;;;;;;1.10;1.00;;;13.80;99.90;;;;;;5060024;28;20610;-61
2022/06/06 09:18:12;;;;;;;1.70;0.83;;;13.70;99.90;;;;;;5043591;28;20444;-61
2022/06/06 09:20:51;;;;;;;0.60;0.60;;;13.70;99.90;;;;;;5060310;28;20448;-61
2022/06/06 09:24:00;;;;;;;1.30;1.20;;;13.70;99.90;;;;;;5060287;28;20542;-61
2022/06/06 09:26:45;;;;;;;0.70;0.70;;;13.70;99.90;;;;;;5036768;28;21385;-61
2022/06/06 09:30:00;;;;;;;1.03;0.87;;;13.80;99.90;;;;;;5059974;28;20444;-61
2022/06/06 09:33:16;;;;;;;1.30;1.20;;;13.70;99.90;;;;;;5054037;28;20470;-62
2022/06/06 09:36:11;;;;;;;1.03;0.93;;;13.60;99.90;;;;;;5000418;28;20458;-61
2022/06/06 09:38:55;;;;;;;1.30;0.90;;;13.50;99.90;;;;;;5000705;28;20431;-61
2022/06/06 09:41:38;;;;;;;0.83;0.70;;;13.50;99.90;;;;;;5056215;28;20458;-61
2022/06/06 09:44:25;;;;;;;2.07;1.10;;;13.50;99.90;;;;;;5079596;28;20443;-61
2022/06/06 09:47:26;;;;;;;0.97;0.83;;;13.50;99.90;;;;;;5080151;28;20487;-62
2022/06/06 09:50:35;;;;;;;0.80;0.80;;;13.60;99.90;;;;;;5079718;28;20434;-61
2022/06/06 09:53:45;;;;;;;0.80;0.70;;;13.60;99.90;;;;;;5080257;28;20440;-61
2022/06/06 10:00:30;;;;;;;1.20;1.10;;;13.70;99.90;;;;;;4980865;28;20461;-61
2022/06/06 10:03:42;;;;;;;1.00;0.90;;;13.60;99.90;;;;;;4942783;29;20461;-61
2022/06/06 10:07:03;;;;;;;0.97;0.90;;;13.60;99.90;;;;;;4940432;29;20493;-61
2022/06/06 10:10:20;;;;;;;1.17;0.83;;;13.60;99.90;;;;;;4958229;29;20445;-61
2022/06/06 10:13:09;;;;;;;0.90;0.90;;;13.60;99.90;;;;;;5000724;28;20447;-61
2022/06/06 10:16:19;;;;;;;1.53;0.80;;;13.60;99.90;;;;;;5000033;28;20458;-61
2022/06/06 10:19:12;;;;;;;1.17;1.07;;;13.60;99.90;;;;;;4986760;28;20459;-61
2022/06/06 10:22:05;;;;;;;1.30;1.20;;;13.50;99.90;;;;;;4994518;28;20834;-61
2022/06/06 10:24:54;;;;;;;1.60;1.50;;;13.50;99.90;;;;;;4999250;28;20465;-61
2022/06/06 10:27:33;;;;;;;0.90;0.90;;;13.50;99.90;;;;;;5000518;28;20506;-61
2022/06/06 10:30:13;;;;;;;2.97;1.10;;;13.50;99.90;;;;;;5000193;28;20528;-61
2022/06/06 10:33:21;;;;;;;1.67;1.20;;;13.50;99.90;;;;;;5000621;28;20590;-61
2022/06/06 10:36:05;;;;;;;1.30;1.20;;;13.50;99.90;;;;;;5049996;28;20440;-61
2022/06/06 10:39:14;;;;;;;1.90;0.80;;;13.50;99.90;;;;;;5084549;28;20437;-61
2022/06/06 10:42:08;;;;;;;1.17;1.07;;;13.50;99.90;;;;;;5079852;28;20554;-61
2022/06/06 10:45:18;;;;;;;1.00;1.00;;;13.40;99.90;;;;;;5082303;28;20439;-61
2022/06/06 10:48:21;;;;;;;3.40;1.27;;;13.30;99.90;;;;;;5083514;28;20471;-61
2022/06/06 10:51:41;;;;;;;1.67;0.90;;;13.30;99.90;;;;;;5083205;28;20442;-61
2022/06/06 10:54:50;;;;;;;0.70;0.70;;;13.30;99.90;;;;;;5071901;28;20597;-61
2022/06/06 10:58:06;;;;;;;1.57;0.80;;;13.40;99.90;;;;;;5083583;28;20443;-61
2022/06/06 11:01:05;;;;;;;1.37;0.90;;;13.40;99.90;;;;;;5083388;28;20451;-61
2022/06/06 11:03:59;;;;;;;4.53;0.83;;;13.40;99.90;;;;;;5083338;28;20475;-61
2022/06/06 11:07:01;;;;;;;1.27;1.00;;;13.50;99.90;;;;;;5083296;28;20483;-61
2022/06/06 11:09:49;;;;;;;1.37;0.73;;;13.40;99.90;;;;;;5076527;28;20461;-61
2022/06/06 11:12:51;;;;;;;1.13;1.10;;;13.40;99.90;;;;;;5083348;28;20435;-61
2022/06/06 11:15:34;;;;;;;0.97;0.87;;;13.30;99.90;;;;;;5081448;28;20435;-61
2022/06/06 11:18:40;;;;;;;1.03;0.70;;;13.30;99.90;;;;;;5113772;28;20456;-60
2022/06/06 11:21:43;;;;;;;1.47;1.37;;;13.30;99.90;;;;;;5124424;28;20801;-61
2022/06/06 11:24:20;;;;;;;1.20;0.80;;;13.30;99.90;;;;;;5112916;28;20452;-61
2022/06/06 11:27:22;;;;;;;1.33;1.23;;;13.30;99.90;;;;;;5126574;28;21152;-61
2022/06/06 11:30:16;;;;;;;0.80;0.80;;;13.40;99.90;;;;;;5124518;28;20433;-61
2022/06/06 11:33:25;;;;;;;1.63;1.07;;;13.50;99.90;;;;;;5126306;28;20448;-61
2022/06/06 11:36:17;;;;;;;1.30;1.20;;;13.40;99.90;;;;;;5126456;28;20825;-61
2022/06/06 11:39:32;;;;;;;1.37;1.23;;;13.40;99.90;;;;;;5125847;28;20445;-61
2022/06/06 11:42:26;;;;;;;1.03;1.00;;;13.40;99.90;;;;;;5063241;28;20454;-61
2022/06/06 11:45:31;;;;;;;3.00;1.40;;;13.40;99.90;;;;;;5062895;28;20428;-61
2022/06/06 11:48:30;;;;;;;1.40;1.20;;;13.40;99.90;;;;;;5060727;28;20500;-61
2022/06/06 11:51:35;;;;;;;1.30;1.20;;;13.40;99.90;;;;;;5062852;28;20978;-61
2022/06/06 11:54:38;;;;;;;2.47;1.00;;;13.30;99.90;;;;;;5061505;28;20428;-61
2022/06/06 11:57:36;;;;;;;2.03;1.40;;;13.30;99.90;;;;;;5058290;28;20460;-61
2022/06/06 12:00:24;;;;;;;1.50;1.40;;;13.40;99.90;;;;;;5062271;28;20440;-60
2022/06/06 12:03:50;;;;;;;1.87;1.40;;;13.30;99.90;;;;;;5062537;28;20445;-61
2022/06/06 12:06:59;;;;;;;2.00;1.40;;;13.30;99.90;;;;;;5062390;28;20436;-60
2022/06/06 12:09:44;;;;;;;1.90;1.13;;;13.20;99.90;;;;;;4982547;28;20448;-61
2022/06/06 12:12:45;;;;;;;1.90;1.30;;;13.20;99.90;;;;;;4983417;28;20444;-60
2022/06/06 12:15:53;;;;;;;1.33;1.23;;;13.20;99.90;;;;;;4983089;28;20435;-61
2022/06/06 12:18:51;;;;;;;2.10;1.57;;;13.20;99.90;;;;;;5004464;28;20542;-61
2022/06/06 12:21:48;;;;;;;1.77;1.40;;;13.20;99.90;;;;;;5062143;28;20424;-61
2022/06/06 12:24:54;;;;;;;1.77;1.53;;;13.10;99.90;;;;;;5060455;28;20448;-61
2022/06/06 12:27:32;;;;;;;1.77;1.57;;;13.10;99.90;;;;;;5061756;28;20498;-60
2022/06/06 12:30:21;;;;;;;1.40;1.30;;;13.10;99.90;;;;;;5061432;28;20444;-60
2022/06/06 12:33:02;;;;;;;1.57;1.47;;;13.10;99.90;;;;;;5061464;28;20495;-61
2022/06/06 12:35:49;;;;;;;1.70;1.60;;;13.10;99.90;;;;;;5061156;28;20455;-60
2022/06/06 12:38:29;;;;;;;2.50;1.70;;;13.10;99.90;;;;;;5061339;28;20467;-60
2022/06/06 12:41:18;;;;;;;1.63;1.53;;;13.10;99.90;;;;;;5060124;28;20463;-61
2022/06/06 12:43:59;;;;;;;2.17;1.67;;;13.10;99.90;;;;;;5074680;28;20977;-61
2022/06/06 12:47:01;;;;;;;2.27;1.60;;;13.10;99.90;;;;;;5124561;27;20445;-61
2022/06/06 12:50:03;;;;;;;1.50;1.40;;;13.00;99.90;;;;;;5123949;28;20457;-61
2022/06/06 12:52:55;;;;;;;1.83;1.60;;;13.00;99.90;;;;;;5124443;28;20516;-61
2022/06/06 12:55:40;;;;;;;1.60;1.50;;;13.00;99.90;;;;;;5123046;28;20433;-62
2022/06/06 12:58:32;;;;;;;1.87;1.67;;;13.00;99.90;;;;;;5124330;28;20442;-61
2022/06/06 13:04:12;;;;;;;1.87;1.67;;;13.20;99.90;;;;;;5124101;28;20426;-61
2022/06/06 13:06:50;;;;;;;2.00;1.90;;;13.30;99.90;;;;;;5123889;28;20525;-61
2022/06/06 13:09:47;;;;;;;1.83;1.73;;;13.20;99.90;;;;;;5136589;27;20496;-61
2022/06/06 13:12:33;;;;;;;1.63;1.53;;;13.20;99.90;;;;;;5144522;27;21033;-61
2022/06/06 13:15:13;;;;;;;3.03;2.23;;;13.20;99.90;;;;;;5144190;27;20449;-61
2022/06/06 13:17:59;;;;;;;1.70;1.60;;;13.30;99.90;;;;;;5144153;27;20448;-60
2022/06/06 13:20:40;;;;;;;2.87;2.27;;;13.30;99.90;;;;;;5143998;27;20444;-61
2022/06/06 13:23:33;;;;;;;1.50;1.40;;;13.30;99.90;;;;;;5144156;27;20496;-61
2022/06/06 13:26:34;;;;;;;3.63;1.90;;;13.40;99.90;;;;;;5143303;27;20754;-60
2022/06/06 13:29:08;;;;;;;2.40;1.60;;;13.30;99.90;;;;;;5143886;27;20982;-61
2022/06/06 13:31:51;;;;;;;1.60;1.47;;;13.30;99.90;;;;;;5144511;27;20449;-61
2022/06/06 13:34:35;;;;;;;3.50;1.77;;;13.30;99.90;;;;;;5143987;27;20503;-60
2022/06/06 13:37:18;;;;;;;2.43;2.23;;;13.30;99.90;;;;;;5144249;27;20440;-61
2022/06/06 13:40:06;;;;;;;2.37;1.70;;;13.20;99.90;;;;;;5142789;27;20459;-61
2022/06/06 13:42:59;;;;;;;2.50;2.30;;;13.30;99.90;;;;;;5139723;27;20450;-61
2022/06/06 13:45:36;;;;;;;1.53;1.43;;;13.30;99.90;;;;;;5123389;28;20442;-60
2022/06/06 13:48:41;;;;;;;3.47;1.37;;;13.40;99.90;;;;;;5122913;28;20484;-61
2022/06/06 13:51:25;;;;;;;2.27;1.57;;;13.40;99.90;;;;;;5123240;28;20560;-61
2022/06/06 13:54:06;;;;;;;1.60;1.50;;;13.40;99.90;;;;;;5122642;28;20472;-61
2022/06/06 13:56:58;;;;;;;1.33;1.23;;;13.40;99.90;;;;;;5123458;28;20453;-61
2022/06/06 13:59:52;;;;;;;1.40;1.30;;;13.50;99.90;;;;;;5142479;28;20439;-61
2022/06/06 14:02:35;;;;;;;1.43;1.33;;;13.50;99.90;;;;;;5123080;28;20781;-61
2022/06/06 14:05:40;;;;;;;1.90;1.50;;;13.50;99.90;;;;;;5123258;28;20445;-61
2022/06/06 14:08:15;;;;;;;1.50;1.30;;;13.60;99.90;;;;;;5123460;28;21248;-61
2022/06/06 14:11:02;;;;;;;1.70;1.60;;;13.70;99.90;;;;;;5122148;28;20445;-61
2022/06/06 14:13:50;;;;;;;2.03;1.40;;;13.60;99.90;;;;;;5123274;28;20480;-61
2022/06/06 14:16:35;;;;;;;3.53;1.40;;;13.60;99.90;;;;;;5123439;28;20828;-60
2022/06/06 14:19:15;;;;;;;1.57;1.47;;;13.60;99.90;;;;;;5124511;28;20509;-61
2022/06/06 14:21:52;;;;;;;2.13;1.87;;;13.60;99.90;;;;;;5127625;28;20471;-61
2022/06/06 14:24:24;;;;;;;1.47;1.30;;;13.60;99.90;;;;;;5126288;28;20445;-60
2022/06/06 14:26:59;;;;;;;2.00;1.37;;;13.70;99.90;;;;;;5127190;28;20445;-61
2022/06/06 14:29:33;;;;;;;1.53;1.40;;;13.80;99.90;;;;;;5126971;28;20484;-61
2022/06/06 14:32:30;;;;;;;1.60;1.50;;;13.90;99.90;;;;;;5127553;28;20449;-61
2022/06/06 14:35:03;;;;;;;1.50;1.40;;;13.90;99.90;;;;;;5126912;28;20453;-61
2022/06/06 14:37:36;;;;;;;1.47;1.23;;;13.90;99.90;;;;;;5127084;28;20449;-61
2022/06/06 14:40:11;;;;;;;1.10;1.00;;;13.90;99.90;;;;;;5125887;28;20445;-61
2022/06/06 14:42:46;;;;;;;4.10;1.80;;;14.20;99.90;;;;;;5127152;28;20457;-61
2022/06/06 14:45:34;;;;;;;1.40;1.30;;;14.50;99.90;;;;;;5127008;28;20445;-61